Welcome to our new website - Welkom op onze vernieuwde website - Bienvenue sur notre nouveau site web - Willkommen auf unserer neuen Website
Check our progress frequently. Prüfen Sie unsere Fortschritte regelmäßig. Consultez notre progression fréquemment. Komt u straks nog eens terug
Mist van: 21-01-2020 10:00 tot: 12:00 waarschuwing voor: Mist niveau: Geel info button
Dichte mist, met een zicht van minder dan 200 m.Gevaarlijke rijomstandigheden door slecht zicht.Pas snelheid aan en houd voldoende afstand.Mist kan verraderlijk zijn door plotseling optreden.Volg weerberichten en waarschuwingen.



Bezoek onze andere website:

Template documentation
and downloads

And another site



METAR rapporten vliegvelden

   
EBBR - Brussels International Airport, Belgium
Afstand tot: W 14 km
Gewijzigd: Jan 21 2020 11:50 am
Freezing, Mist, Grotendeels bewolkt  
Freezing, Mist, Grotendeels bewolkt  
   Wind: varieert 4 km/h
Wind: varieert 4 km/h
Temperatuur: -2°C
Dauwpunt: -2°C
Vochtigheid: 100%
Barometer: 1043 hPa
Bewolking: Grotendeels bewolkt
Zicht: 0 km
Bewolking: Grotendeels bewolkt 30.5 m
EBBR 211050Z VRB02KT 0200 R25L/0350N R25R/0450N R01/0450N FZFG BKN001 M02/M02 Q1043 NOSIG
EBBE - Beauvechain (Bevekom), Belgium
Afstand tot: ZZO 17 km
Gewijzigd: Jan 21 2020 11:55 am
Licht bewolkt  
Licht bewolkt  
   Wind: varieert 4 km/h
Wind: varieert 4 km/h
Temperatuur: 2°C
Dauwpunt: 1°C
Vochtigheid: 93%
Barometer: 1042 hPa
Bewolking: Licht bewolkt
Zicht: 7 km
Bewolking: Licht bewolkt 6705.6 m
EBBE 211055Z VRB02KT 7000 FEW220 02/01 Q1042 WHT WHT BECMG BLU
EBDT - Schaffen, Belgium
Afstand tot: ONO 29 km
Gewijzigd: Jan 21 2020 11:55 am
Mist, Bewolking  
Mist, Bewolking  
   Wind: varieert 2 km/h
Wind: varieert 2 km/h
Temperatuur: -1°C
Dauwpunt: -1°C
Vochtigheid: 100%
Barometer: 1043 hPa
Bewolking: Bewolking
Zicht: 0 km
Bewolking: Bewolking 61 m
EBDT 211055Z AUTO VRB01KT 0100 FG OVC002/// M01/M01 Q1043 RED
EBAW - Antwerp/Deurne, Belgium
Afstand tot: NNW 38 km
Gewijzigd: Jan 21 2020 11:50 am
Nevel, Grotendeels bewolkt  
Nevel, Grotendeels bewolkt  
   Wind: varieert 4 km/h
Wind: varieert 4 km/h
Temperatuur: 0°C
Dauwpunt: 0°C
Vochtigheid: 100%
Barometer: 1043 hPa
Bewolking: Grotendeels bewolkt
Zicht: 2 km
Bewolking: Grotendeels bewolkt 61 m
EBAW 211050Z VRB02KT 2000 BR BKN002 00/M00 Q1043 NOSIG
EBCI - Charleroi/Gosselies, Belgium
Afstand tot: ZZW 51 km
Gewijzigd: Jan 21 2020 11:50 am
Gedeeltelijk bewolkt  
Gedeeltelijk bewolkt  
   Wind: varieert 4 km/h
Wind: varieert 4 km/h
Temperatuur: 3°C
Dauwpunt: 0°C
Vochtigheid: 81%
Barometer: 1042 hPa
Bewolking: Gedeeltelijk bewolkt
Zicht: 9 km
Bewolking: Gedeeltelijk bewolkt
EBCI 211050Z VRB02KT 9000 NSC 03/00 Q1042 NOSIG
EBLG - Bierset/Liege, Belgium
Afstand tot: OZO 60 km
Gewijzigd: Jan 21 2020 11:50 am
Helder  
Helder  
   Wind: varieert 4 km/h
Wind: varieert 4 km/h
Temperatuur: 3°C
Dauwpunt: -2°C
Vochtigheid: 70%
Barometer: 1042 hPa
Zicht: meer dan 10 km
Bewolking: Helder
EBLG 211050Z VRB02KT CAVOK 03/M02 Q1042 NOSIG

Script ontwikkeld door  Saratoga-weather.org Aangepast voor de template door  Weerstation Leuven

U vindt ons ook hier:

Het Weer Aktueel

UK Metoffice

European Weather Network

WeatherCloud

Weather Underground

AWEKAS

Apparatuur in gebruik:

Weerstation
Davis VP2

Weerprogramma
Meteobridge

Weercomputer
Tl-mr3020

Webleverancier
Robohost

Davis VP2

Meteobridge

Tl-mr3020

Robohost